createdAt,value
2022-10-07T00:00:40.958Z,4.33
2022-10-07T00:04:46.553Z,5.00
2022-10-07T00:09:14.911Z,5.47
2022-10-07T00:13:16.915Z,7.30
2022-10-07T00:17:18.942Z,4.23
2022-10-07T00:21:21.043Z,7.07
2022-10-07T00:25:27.162Z,7.67
2022-10-07T00:29:41.843Z,6.37
2022-10-07T00:33:53.071Z,6.53
2022-10-07T00:38:03.214Z,7.10
2022-10-07T00:42:05.270Z,5.87
2022-10-07T00:46:35.109Z,4.63
2022-10-07T00:50:39.934Z,4.70
2022-10-07T00:54:47.760Z,6.23
2022-10-07T00:58:49.960Z,7.00
2022-10-07T01:07:18.336Z,3.40
2022-10-07T01:11:44.429Z,7.17
2022-10-07T01:16:14.123Z,5.83
2022-10-07T01:20:22.551Z,4.63
2022-10-07T01:24:47.766Z,5.80
2022-10-07T01:29:23.819Z,5.57
2022-10-07T01:33:31.650Z,7.67
2022-10-07T01:38:05.634Z,3.43
2022-10-07T01:43:05.832Z,3.90
2022-10-07T01:47:33.699Z,5.97
2022-10-07T01:51:38.051Z,3.30
2022-10-07T01:56:18.059Z,5.80
2022-10-07T02:00:20.060Z,6.97
2022-10-07T02:05:05.585Z,5.23
2022-10-07T02:09:58.536Z,4.67
2022-10-07T02:14:23.246Z,4.77
2022-10-07T02:18:31.515Z,6.20
2022-10-07T02:22:39.095Z,6.07
2022-10-07T02:26:41.031Z,6.80
2022-10-07T02:30:43.742Z,4.00
2022-10-07T02:34:47.765Z,5.10
2022-10-07T02:38:55.669Z,3.93
2022-10-07T02:43:04.460Z,5.43
2022-10-07T02:47:21.229Z,5.60
2022-10-07T02:51:25.543Z,4.70
2022-10-07T02:55:27.597Z,6.40
2022-10-07T02:59:43.610Z,6.00
2022-10-07T03:04:18.834Z,4.40
2022-10-07T03:08:35.553Z,5.97
2022-10-07T03:12:37.528Z,5.00
2022-10-07T03:16:39.451Z,4.43
2022-10-07T03:20:41.364Z,4.33
2022-10-07T03:24:43.283Z,5.70
2022-10-07T03:28:45.961Z,6.33
2022-10-07T03:32:49.553Z,5.73
2022-10-07T03:36:51.492Z,6.10
2022-10-07T03:40:53.426Z,7.13
2022-10-07T03:44:55.326Z,6.57
2022-10-07T03:48:58.465Z,8.20
2022-10-07T03:57:49.920Z,6.93
2022-10-07T04:01:52.153Z,9.03
2022-10-07T04:05:59.744Z,4.80
2022-10-07T04:10:01.863Z,3.60
2022-10-07T04:14:03.862Z,6.00
2022-10-07T04:18:09.191Z,7.33
2022-10-07T04:22:13.598Z,6.60
2022-10-07T04:26:15.802Z,7.63
2022-10-07T04:30:20.978Z,6.37
2022-10-07T04:34:23.006Z,11.17
2022-10-07T04:38:28.255Z,10.67
2022-10-07T04:42:52.202Z,9.23
2022-10-07T04:47:06.362Z,9.13
2022-10-07T04:51:08.896Z,7.40
2022-10-07T04:55:14.541Z,8.30
2022-10-07T04:59:24.109Z,9.73
2022-10-07T05:07:49.338Z,6.83
2022-10-07T05:12:26.169Z,6.63
2022-10-07T05:16:28.139Z,6.50
2022-10-07T05:20:39.692Z,7.97
2022-10-07T05:24:50.125Z,11.33
2022-10-07T05:28:55.234Z,10.10
2022-10-07T05:33:10.718Z,8.47
2022-10-07T05:37:36.796Z,10.63
2022-10-07T05:42:03.876Z,8.40
2022-10-07T05:53:28.373Z,9.37
2022-10-07T05:58:51.112Z,10.07
2022-10-07T06:03:51.439Z,9.87
2022-10-07T06:16:45.383Z,6.73
2022-10-07T06:20:34.378Z,6.10
2022-10-07T06:31:24.845Z,6.00
2022-10-07T06:46:59.117Z,9.70
2022-10-07T07:08:02.998Z,6.33
2022-10-07T07:12:05.034Z,7.30
2022-10-07T07:16:09.575Z,8.40
2022-10-07T07:20:13.428Z,7.00
2022-10-07T07:24:15.462Z,6.90
2022-10-07T07:28:17.428Z,5.47
2022-10-07T07:32:21.978Z,6.63
2022-10-07T07:36:25.075Z,6.70
2022-10-07T07:40:27.245Z,6.80
2022-10-07T07:44:34.752Z,6.27
2022-10-07T07:48:38.268Z,5.97
2022-10-07T07:52:40.286Z,7.40
2022-10-07T07:57:23.822Z,5.10
2022-10-07T08:02:24.108Z,6.33
2022-10-07T08:07:25.460Z,5.50
2022-10-07T08:11:22.280Z,6.93
2022-10-07T08:15:51.808Z,5.47
2022-10-07T08:20:06.040Z,7.87
2022-10-07T08:28:26.510Z,6.67
2022-10-07T08:32:31.120Z,6.30
2022-10-07T08:36:33.190Z,6.47
2022-10-07T08:40:35.820Z,4.63
2022-10-07T08:45:09.937Z,6.13
2022-10-07T08:49:29.558Z,5.87
2022-10-07T08:53:47.783Z,5.33
2022-10-07T08:58:07.570Z,10.20
2022-10-07T09:03:26.858Z,7.03
2022-10-07T09:08:40.414Z,7.43
2022-10-07T09:18:06.638Z,5.93
2022-10-07T09:22:51.769Z,4.23
2022-10-07T09:28:02.221Z,4.17
2022-10-07T09:33:12.876Z,5.40
2022-10-07T09:43:27.707Z,4.90
2022-10-07T09:47:36.804Z,9.13
2022-10-07T09:51:40.155Z,4.13
2022-10-07T09:55:43.363Z,4.70
2022-10-07T09:59:48.606Z,3.37
2022-10-07T10:05:59.257Z,5.03
2022-10-07T10:27:47.235Z,6.47
2022-10-07T10:38:00.966Z,4.70
2022-10-07T10:42:17.673Z,4.50
2022-10-07T10:47:00.525Z,3.77
2022-10-07T10:51:34.217Z,3.77
2022-10-07T10:55:55.415Z,3.63
2022-10-07T11:00:13.347Z,3.43
2022-10-07T11:04:26.939Z,5.30
2022-10-07T11:08:50.023Z,3.83
2022-10-07T11:13:17.939Z,7.87
2022-10-07T11:17:30.919Z,5.47
2022-10-07T11:22:08.382Z,3.93
2022-10-07T11:26:37.583Z,3.67
2022-10-07T11:30:53.506Z,4.80
2022-10-07T11:35:24.395Z,4.97
2022-10-07T11:39:26.668Z,4.33
2022-10-07T11:43:49.995Z,4.27
2022-10-07T11:47:59.563Z,5.07
2022-10-07T11:52:24.604Z,4.73
2022-10-07T11:56:27.231Z,5.33
2022-10-07T12:00:40.529Z,3.37
2022-10-07T12:04:42.535Z,3.60
2022-10-07T12:08:44.862Z,4.60
2022-10-07T12:13:07.621Z,3.17
2022-10-07T12:17:27.031Z,4.10
2022-10-07T12:21:29.319Z,3.40
2022-10-07T12:25:32.606Z,3.33
2022-10-07T12:30:04.363Z,4.30
2022-10-07T12:34:06.210Z,3.87
2022-10-07T12:38:11.090Z,3.57
2022-10-07T12:42:13.227Z,3.87
2022-10-07T12:46:18.905Z,4.37
2022-10-07T12:50:32.094Z,2.27
2022-10-07T13:00:28.442Z,3.10
2022-10-07T13:04:55.532Z,4.33
2022-10-07T13:09:28.689Z,3.30
2022-10-07T13:14:01.992Z,5.43
2022-10-07T13:18:44.975Z,2.70
2022-10-07T13:22:50.820Z,3.83
2022-10-07T13:26:54.916Z,4.07
2022-10-07T13:31:04.512Z,3.90
2022-10-07T13:35:43.087Z,2.00
2022-10-07T13:39:47.838Z,2.97
2022-10-07T13:43:54.625Z,3.67
2022-10-07T13:47:59.368Z,3.40
2022-10-07T13:52:04.232Z,4.23
2022-10-07T13:56:13.659Z,3.10
2022-10-07T14:00:16.492Z,3.60
2022-10-07T14:04:25.285Z,3.23
2022-10-07T14:08:31.541Z,3.03
2022-10-07T14:12:45.451Z,3.60
2022-10-07T14:16:49.563Z,3.73
2022-10-07T14:20:56.226Z,3.53
2022-10-07T14:25:01.702Z,3.47
2022-10-07T14:29:28.329Z,4.13
2022-10-07T14:34:13.081Z,3.53
2022-10-07T14:38:27.803Z,3.03
2022-10-07T14:42:36.254Z,3.13
2022-10-07T15:04:56.428Z,2.73
2022-10-07T15:20:17.776Z,4.60
2022-10-07T15:24:19.817Z,3.57
2022-10-07T15:28:21.865Z,2.97
2022-10-07T15:32:24.054Z,4.23
2022-10-07T15:36:28.680Z,5.60
2022-10-07T15:40:31.430Z,4.27
2022-10-07T15:44:36.539Z,3.57
2022-10-07T15:48:40.260Z,3.30
2022-10-07T15:52:42.180Z,3.50
2022-10-07T15:56:45.245Z,2.83
2022-10-07T16:06:16.865Z,3.33
2022-10-07T16:10:18.974Z,3.20
2022-10-07T16:14:31.853Z,3.23
2022-10-07T16:19:27.983Z,6.00
2022-10-07T16:29:51.592Z,4.87
2022-10-07T16:34:03.642Z,7.50
2022-10-07T16:38:14.438Z,5.67
2022-10-07T16:42:42.204Z,8.50
2022-10-07T16:46:59.203Z,5.10
2022-10-07T17:36:49.681Z,10.57
2022-10-07T17:41:19.419Z,10.17
2022-10-07T17:45:24.928Z,9.47
2022-10-07T17:49:34.743Z,11.40
2022-10-07T17:53:37.638Z,11.20
2022-10-07T17:57:42.123Z,11.37
2022-10-07T18:02:11.999Z,13.23
2022-10-07T18:06:40.298Z,13.63
2022-10-07T18:11:00.393Z,13.30
2022-10-07T18:20:42.416Z,15.17
2022-10-07T18:26:02.620Z,14.53
2022-10-07T19:04:16.114Z,16.80
2022-10-07T19:08:22.620Z,19.63
2022-10-07T19:13:53.259Z,14.93
2022-10-07T19:18:05.757Z,13.53
2022-10-07T19:22:08.064Z,16.30
2022-10-07T19:26:38.199Z,12.97
2022-10-07T19:30:46.288Z,12.23
2022-10-07T19:35:20.442Z,13.30
2022-10-07T19:40:03.877Z,12.43
2022-10-07T19:44:33.429Z,13.03
2022-10-07T19:48:43.380Z,14.10
2022-10-07T19:53:03.448Z,13.77
2022-10-07T19:57:06.855Z,15.90
2022-10-07T20:01:10.262Z,13.07
2022-10-07T20:05:12.372Z,12.63
2022-10-07T20:09:19.058Z,13.00
2022-10-07T20:13:23.477Z,12.90
2022-10-07T20:17:49.806Z,15.03
2022-10-07T20:22:00.016Z,15.67
2022-10-07T20:26:32.135Z,12.80
2022-10-07T20:30:35.204Z,16.47
2022-10-07T20:34:39.313Z,12.33
2022-10-07T20:39:00.032Z,12.00
2022-10-07T20:43:03.515Z,13.87
2022-10-07T20:47:09.394Z,14.93
2022-10-07T20:51:12.856Z,12.97
2022-10-07T20:55:14.836Z,14.37
2022-10-07T20:59:16.860Z,18.83
2022-10-07T21:03:25.341Z,13.20
2022-10-07T21:07:29.436Z,16.20
2022-10-07T21:11:31.341Z,16.47
2022-10-07T21:15:37.662Z,18.03
2022-10-07T21:19:40.099Z,16.17
2022-10-07T21:23:42.212Z,16.83
2022-10-07T21:27:44.139Z,19.80
2022-10-07T21:31:48.112Z,13.87
2022-10-07T21:35:50.572Z,14.27
2022-10-07T21:39:52.387Z,15.70
2022-10-07T21:43:55.703Z,16.90
2022-10-07T21:47:59.102Z,17.57
2022-10-07T21:52:01.000Z,18.30
2022-10-07T21:56:08.282Z,18.27
2022-10-07T22:00:12.408Z,16.93
2022-10-07T22:04:17.624Z,17.90
2022-10-07T22:08:35.812Z,18.23
2022-10-07T22:12:37.756Z,17.13
2022-10-07T22:16:39.864Z,18.47
2022-10-07T22:20:44.613Z,19.97
2022-10-07T22:24:46.507Z,22.93
2022-10-07T22:28:48.456Z,22.83
2022-10-07T22:33:02.799Z,20.43
2022-10-07T22:37:05.184Z,20.97
2022-10-07T22:41:26.613Z,19.70
2022-10-07T22:45:28.559Z,21.50
2022-10-07T22:49:30.599Z,19.80
2022-10-07T22:53:33.411Z,20.90
2022-10-07T22:57:38.304Z,21.47
2022-10-07T23:01:40.270Z,20.63
2022-10-07T23:05:42.178Z,20.60
2022-10-07T23:09:44.185Z,20.17
2022-10-07T23:13:46.171Z,21.17
2022-10-07T23:17:48.067Z,21.87
2022-10-07T23:21:49.975Z,24.67
2022-10-07T23:25:52.175Z,19.87
2022-10-07T23:29:54.050Z,22.67
2022-10-07T23:33:56.509Z,22.87
2022-10-07T23:38:00.437Z,20.50
2022-10-07T23:42:03.042Z,21.60
2022-10-07T23:46:07.646Z,20.13
2022-10-07T23:50:10.100Z,18.83
2022-10-07T23:54:12.174Z,23.07
2022-10-07T23:58:16.991Z,20.53
